createdAt,value
2017-08-27T00:00:29.636Z,22.87
2017-08-27T00:02:56.276Z,26.53
2017-08-27T00:05:22.904Z,27.80
2017-08-27T00:07:49.532Z,23.90
2017-08-27T00:10:16.177Z,24.20
2017-08-27T00:12:42.810Z,23.57
2017-08-27T00:15:09.481Z,22.23
2017-08-27T00:17:36.102Z,23.17
2017-08-27T00:20:02.740Z,24.60
2017-08-27T00:22:29.382Z,26.70
2017-08-27T00:24:56.014Z,24.10
2017-08-27T00:27:22.624Z,21.77
2017-08-27T00:29:49.259Z,25.30
2017-08-27T00:32:15.984Z,24.47
2017-08-27T00:34:42.638Z,26.43
2017-08-27T00:37:09.248Z,21.60
2017-08-27T00:39:35.882Z,23.43
2017-08-27T00:42:02.544Z,25.50
2017-08-27T00:44:29.204Z,23.37
2017-08-27T00:46:55.915Z,47.33
2017-08-27T00:49:22.548Z,57.00
2017-08-27T00:51:49.198Z,50.53
2017-08-27T00:54:15.818Z,39.30
2017-08-27T00:56:42.467Z,56.90
2017-08-27T00:59:09.118Z,50.20
2017-08-27T01:01:35.734Z,61.53
2017-08-27T01:04:02.392Z,56.93
2017-08-27T01:06:29.017Z,60.07
2017-08-27T01:08:55.638Z,61.03
2017-08-27T01:11:22.286Z,62.80
2017-08-27T01:13:48.952Z,62.57
2017-08-27T01:16:15.571Z,56.73
2017-08-27T01:18:42.192Z,60.73
2017-08-27T01:21:08.831Z,63.53
2017-08-27T01:23:35.450Z,60.33
2017-08-27T01:26:02.130Z,58.10
2017-08-27T01:28:28.783Z,60.40
2017-08-27T01:30:55.406Z,51.47
2017-08-27T01:33:22.072Z,56.60
2017-08-27T01:35:48.698Z,62.83
2017-08-27T01:38:15.330Z,54.53
2017-08-27T01:40:41.948Z,59.87
2017-08-27T01:43:08.586Z,62.40
2017-08-27T01:45:35.239Z,55.30
2017-08-27T01:48:01.854Z,57.73
2017-08-27T01:50:28.497Z,52.10
2017-08-27T01:52:55.123Z,54.07
2017-08-27T01:55:21.758Z,56.83
2017-08-27T01:57:48.398Z,65.43
2017-08-27T02:00:15.014Z,58.37
2017-08-27T02:02:41.647Z,57.03
2017-08-27T02:05:08.320Z,61.90
2017-08-27T02:07:34.930Z,54.20
2017-08-27T02:10:01.556Z,57.33
2017-08-27T02:12:28.193Z,58.80
2017-08-27T02:14:54.832Z,57.67
2017-08-27T02:17:21.483Z,51.73
2017-08-27T02:19:48.126Z,50.30
2017-08-27T02:22:14.782Z,58.93
2017-08-27T02:24:41.399Z,56.63
2017-08-27T02:27:08.065Z,61.33
2017-08-27T02:29:34.686Z,68.20
2017-08-27T02:32:01.327Z,63.23
2017-08-27T02:34:27.938Z,69.93
2017-08-27T02:36:54.587Z,56.57
2017-08-27T02:39:21.202Z,62.97
2017-08-27T02:41:47.845Z,64.17
2017-08-27T02:44:14.475Z,71.57
2017-08-27T02:46:41.094Z,69.80
2017-08-27T02:49:07.734Z,72.30
2017-08-27T02:51:34.380Z,81.57
2017-08-27T02:54:00.987Z,76.73
2017-08-27T02:56:27.619Z,74.80
2017-08-27T02:58:54.249Z,72.80
2017-08-27T03:01:20.885Z,77.73
2017-08-27T03:03:47.534Z,77.17
2017-08-27T03:06:14.155Z,77.67
2017-08-27T03:08:40.777Z,81.20
2017-08-27T03:11:07.429Z,76.23
2017-08-27T03:13:34.056Z,77.30
2017-08-27T03:16:00.715Z,82.97
2017-08-27T03:18:27.337Z,85.93
2017-08-27T03:20:53.963Z,89.67
2017-08-27T03:23:20.608Z,81.73
2017-08-27T03:25:47.236Z,85.80
2017-08-27T03:28:13.906Z,83.43
2017-08-27T03:30:40.520Z,87.87
2017-08-27T03:33:07.170Z,94.13
2017-08-27T03:35:33.794Z,80.63
2017-08-27T03:38:00.447Z,86.30
2017-08-27T03:40:27.078Z,85.87
2017-08-27T03:42:53.692Z,91.17
2017-08-27T03:45:20.331Z,84.90
2017-08-27T03:47:46.986Z,96.73
2017-08-27T03:50:13.619Z,89.57
2017-08-27T03:52:40.264Z,95.20
2017-08-27T03:55:06.898Z,86.60
2017-08-27T03:57:33.526Z,88.03
2017-08-27T04:00:00.152Z,92.47
2017-08-27T04:02:26.767Z,79.83
2017-08-27T04:04:53.419Z,87.70
2017-08-27T04:07:20.036Z,88.50
2017-08-27T04:09:46.695Z,85.13
2017-08-27T04:12:13.346Z,84.10
2017-08-27T04:14:39.950Z,91.43
2017-08-27T04:17:06.570Z,88.73
2017-08-27T04:19:33.212Z,86.53
2017-08-27T04:21:59.858Z,98.17
2017-08-27T04:24:26.514Z,84.50
2017-08-27T04:26:53.141Z,92.40
2017-08-27T04:29:19.785Z,87.33
2017-08-27T04:31:46.830Z,92.00
2017-08-27T04:34:13.443Z,109.77
2017-08-27T04:36:40.075Z,95.67
2017-08-27T04:39:06.723Z,98.27
2017-08-27T04:41:33.358Z,91.73
2017-08-27T04:43:59.970Z,86.93
2017-08-27T04:46:26.593Z,87.67
2017-08-27T04:48:53.260Z,86.60
2017-08-27T04:51:19.892Z,82.20
2017-08-27T04:53:46.530Z,92.20
2017-08-27T04:56:13.167Z,71.10
2017-08-27T04:58:39.785Z,75.77
2017-08-27T05:01:06.460Z,69.07
2017-08-27T05:03:33.071Z,69.80
2017-08-27T05:05:59.715Z,71.33
2017-08-27T05:08:26.382Z,63.50
2017-08-27T05:10:52.999Z,57.83
2017-08-27T05:13:19.663Z,64.40
2017-08-27T05:15:46.288Z,61.40
2017-08-27T05:18:12.931Z,61.50
2017-08-27T05:20:39.554Z,51.97
2017-08-27T05:23:06.219Z,60.90
2017-08-27T05:25:32.830Z,58.57
2017-08-27T05:27:59.482Z,54.90
2017-08-27T05:30:26.114Z,56.27
2017-08-27T05:32:52.735Z,57.07
2017-08-27T05:35:19.378Z,58.63
2017-08-27T05:37:46.015Z,53.50
2017-08-27T05:40:12.642Z,55.70
2017-08-27T05:42:39.288Z,64.90
2017-08-27T05:45:05.918Z,49.93
2017-08-27T05:47:32.549Z,53.03
2017-08-27T05:49:59.165Z,50.90
2017-08-27T05:52:25.786Z,50.37
2017-08-27T05:54:52.438Z,48.63
2017-08-27T05:57:19.056Z,48.60
2017-08-27T05:59:45.719Z,51.17
2017-08-27T06:02:12.326Z,52.23
2017-08-27T06:04:38.971Z,52.60
2017-08-27T06:07:05.602Z,61.30
2017-08-27T06:09:32.232Z,49.57
2017-08-27T06:11:58.880Z,46.83
2017-08-27T06:14:25.495Z,48.17
2017-08-27T06:16:52.117Z,52.23
2017-08-27T06:19:18.759Z,50.43
2017-08-27T06:21:45.405Z,50.10
2017-08-27T06:24:12.043Z,50.97
2017-08-27T06:26:38.671Z,44.90
2017-08-27T06:29:05.309Z,47.40
2017-08-27T06:31:31.942Z,46.63
2017-08-27T06:33:58.572Z,41.17
2017-08-27T06:36:25.206Z,39.03
2017-08-27T06:38:51.827Z,51.33
2017-08-27T06:41:18.472Z,42.17
2017-08-27T06:43:45.088Z,40.83
2017-08-27T06:46:11.735Z,47.60
2017-08-27T06:48:38.355Z,37.63
2017-08-27T06:51:05.010Z,43.30
2017-08-27T06:53:31.627Z,53.70
2017-08-27T06:55:58.242Z,39.17
2017-08-27T06:58:24.885Z,35.60
2017-08-27T07:00:51.511Z,35.63
2017-08-27T07:03:18.147Z,41.73
2017-08-27T07:05:44.752Z,31.53
2017-08-27T07:08:11.390Z,35.80
2017-08-27T07:10:38.010Z,35.33
2017-08-27T07:13:04.641Z,36.23
2017-08-27T07:15:31.270Z,30.90
2017-08-27T07:17:57.906Z,36.67
2017-08-27T07:20:24.554Z,30.67
2017-08-27T07:22:51.186Z,32.80
2017-08-27T07:25:17.832Z,28.73
2017-08-27T07:27:44.462Z,27.07
2017-08-27T07:30:11.098Z,26.50
2017-08-27T07:32:37.763Z,21.07
2017-08-27T07:35:04.388Z,21.47
2017-08-27T07:37:31.035Z,24.23
2017-08-27T07:39:57.642Z,24.43
2017-08-27T07:42:24.276Z,28.53
2017-08-27T07:44:50.930Z,21.47
2017-08-27T07:47:17.551Z,21.00
2017-08-27T07:49:44.200Z,17.00
2017-08-27T07:52:10.839Z,26.63
2017-08-27T07:54:37.458Z,18.97
2017-08-27T07:57:04.102Z,19.80
2017-08-27T07:59:30.741Z,16.53
2017-08-27T08:01:57.558Z,16.00
2017-08-27T08:04:24.191Z,17.30
2017-08-27T08:06:51.095Z,19.50
2017-08-27T08:09:17.747Z,16.77
2017-08-27T08:11:44.369Z,18.03
2017-08-27T08:14:11.019Z,17.57
2017-08-27T08:16:37.659Z,17.27
2017-08-27T08:19:04.287Z,19.17
2017-08-27T08:21:30.942Z,17.93
2017-08-27T08:23:57.568Z,22.90
2017-08-27T08:26:24.367Z,19.03
2017-08-27T08:28:51.032Z,17.73
2017-08-27T08:31:17.691Z,14.63
2017-08-27T08:33:44.318Z,21.47
2017-08-27T08:36:10.959Z,14.20
2017-08-27T08:38:37.605Z,15.33
2017-08-27T08:41:04.238Z,17.90
2017-08-27T08:43:30.866Z,13.17
2017-08-27T08:45:57.502Z,11.00
2017-08-27T08:48:24.148Z,18.80
2017-08-27T08:50:50.800Z,12.63
2017-08-27T08:53:17.436Z,19.77
2017-08-27T08:55:44.052Z,13.03
2017-08-27T08:58:10.709Z,13.50
2017-08-27T09:00:37.319Z,18.77
2017-08-27T09:03:03.940Z,16.77
2017-08-27T09:05:31.181Z,15.27
2017-08-27T09:07:57.808Z,7.50
2017-08-27T09:10:24.443Z,16.70
2017-08-27T09:12:51.071Z,13.73
2017-08-27T09:15:17.718Z,9.00
2017-08-27T09:17:44.387Z,8.87
2017-08-27T09:20:10.983Z,9.60
2017-08-27T09:22:37.615Z,7.60
2017-08-27T09:25:04.248Z,12.03
2017-08-27T09:27:30.882Z,9.57
2017-08-27T09:29:57.515Z,10.93
2017-08-27T09:32:24.156Z,5.87
2017-08-27T09:34:50.771Z,6.80
2017-08-27T09:37:17.391Z,7.20
2017-08-27T09:39:44.051Z,7.93
2017-08-27T09:42:10.659Z,4.37
2017-08-27T09:44:37.274Z,5.70
2017-08-27T09:47:03.954Z,7.20
2017-08-27T09:49:30.562Z,5.57
2017-08-27T09:51:57.176Z,7.87
2017-08-27T09:54:23.816Z,5.70
2017-08-27T09:56:50.450Z,4.20
2017-08-27T09:59:17.066Z,4.33
2017-08-27T10:01:43.718Z,5.20
2017-08-27T10:04:10.349Z,3.50
2017-08-27T10:06:36.960Z,6.80
2017-08-27T10:09:03.610Z,7.17
2017-08-27T10:11:30.234Z,6.73
2017-08-27T10:13:56.923Z,6.10
2017-08-27T10:16:23.561Z,5.27
2017-08-27T10:18:50.201Z,5.33
2017-08-27T10:21:16.817Z,5.63
2017-08-27T10:23:43.476Z,3.97
2017-08-27T10:26:10.089Z,4.80
2017-08-27T10:28:36.812Z,5.63
2017-08-27T10:31:03.430Z,2.77
2017-08-27T10:33:30.046Z,2.60
2017-08-27T10:35:56.675Z,5.60
2017-08-27T10:38:23.305Z,2.63
2017-08-27T10:40:49.932Z,3.97
2017-08-27T10:43:16.584Z,3.10
2017-08-27T10:45:43.195Z,5.00
2017-08-27T10:48:09.822Z,2.90
2017-08-27T10:50:36.460Z,3.40
2017-08-27T10:53:03.086Z,4.17
2017-08-27T10:55:29.703Z,3.97
2017-08-27T10:57:56.316Z,3.63
2017-08-27T11:00:22.973Z,4.80
2017-08-27T11:02:49.611Z,5.27
2017-08-27T11:05:16.250Z,2.80
2017-08-27T11:07:42.867Z,2.90
2017-08-27T11:10:09.479Z,2.30
2017-08-27T11:12:36.107Z,4.27
2017-08-27T11:15:02.727Z,3.40
2017-08-27T11:17:29.376Z,7.17
2017-08-27T11:19:55.981Z,4.70
2017-08-27T11:22:22.618Z,2.57
2017-08-27T11:24:49.248Z,3.17
2017-08-27T11:27:15.863Z,3.77
2017-08-27T11:29:42.478Z,3.13
2017-08-27T11:32:09.154Z,2.97
2017-08-27T11:34:35.789Z,2.30
2017-08-27T11:37:02.408Z,3.10
2017-08-27T11:39:29.028Z,3.07
2017-08-27T11:41:55.666Z,3.00
2017-08-27T11:44:22.310Z,2.90
2017-08-27T11:46:48.928Z,4.87
2017-08-27T11:49:15.560Z,2.53
2017-08-27T11:51:42.166Z,3.40
2017-08-27T11:54:08.822Z,2.23
2017-08-27T11:56:35.450Z,2.80
2017-08-27T11:59:02.080Z,6.17
2017-08-27T12:01:28.706Z,3.73
2017-08-27T12:03:55.327Z,4.80
2017-08-27T12:06:21.965Z,4.33
2017-08-27T12:08:48.591Z,3.00
2017-08-27T12:11:15.236Z,3.40
2017-08-27T12:13:41.862Z,2.00
2017-08-27T12:16:08.508Z,5.70
2017-08-27T12:18:35.146Z,4.53
2017-08-27T12:21:01.783Z,2.70
2017-08-27T12:23:28.426Z,3.37
2017-08-27T12:25:55.063Z,4.47
2017-08-27T12:28:21.683Z,2.73
2017-08-27T12:30:48.337Z,5.10
2017-08-27T12:33:14.976Z,3.30
2017-08-27T12:35:41.634Z,4.13
2017-08-27T12:38:08.280Z,2.77
2017-08-27T12:40:34.907Z,2.87
2017-08-27T12:43:01.544Z,5.43
2017-08-27T12:45:28.196Z,5.73
2017-08-27T12:47:54.830Z,2.47
2017-08-27T12:50:21.500Z,8.20
2017-08-27T12:52:48.099Z,8.37
2017-08-27T12:55:14.744Z,3.43
2017-08-27T12:57:41.359Z,3.53
2017-08-27T13:00:07.986Z,4.40
2017-08-27T13:02:34.611Z,4.20
2017-08-27T13:05:01.240Z,3.03
2017-08-27T13:07:27.882Z,6.90
2017-08-27T13:09:54.506Z,3.33
2017-08-27T13:12:21.123Z,5.50
2017-08-27T13:14:47.772Z,3.33
2017-08-27T13:17:14.404Z,4.20
2017-08-27T13:19:41.067Z,4.00
2017-08-27T13:22:08.082Z,4.93
2017-08-27T13:24:35.630Z,7.40
2017-08-27T13:27:02.279Z,4.70
2017-08-27T13:29:28.927Z,5.03
2017-08-27T13:31:55.580Z,5.40
2017-08-27T13:34:22.186Z,3.80
2017-08-27T13:36:48.939Z,9.10
2017-08-27T13:39:15.574Z,6.73
2017-08-27T13:41:42.206Z,6.37
2017-08-27T13:44:08.824Z,6.30
2017-08-27T13:46:35.431Z,5.53
2017-08-27T13:49:02.071Z,6.20
2017-08-27T13:51:28.695Z,5.10
2017-08-27T13:53:55.295Z,4.70
2017-08-27T13:56:21.930Z,7.93
2017-08-27T13:58:48.555Z,9.43
2017-08-27T14:01:15.189Z,4.17
2017-08-27T14:03:41.800Z,7.47
2017-08-27T14:06:08.475Z,6.27
2017-08-27T14:08:35.098Z,4.00
2017-08-27T14:11:01.715Z,4.20
2017-08-27T14:13:28.318Z,5.00
2017-08-27T14:15:54.968Z,3.80
2017-08-27T14:18:21.606Z,4.00
2017-08-27T14:20:48.245Z,3.20
2017-08-27T14:23:14.875Z,5.77
2017-08-27T14:25:41.479Z,3.43
2017-08-27T14:28:08.099Z,4.93
2017-08-27T14:30:34.730Z,5.90
2017-08-27T14:33:01.367Z,4.57
2017-08-27T14:35:28.018Z,4.50
2017-08-27T14:37:54.631Z,4.43
2017-08-27T14:40:21.278Z,4.57
2017-08-27T14:42:47.912Z,4.80
2017-08-27T14:45:14.547Z,5.33
2017-08-27T14:47:41.159Z,5.53
2017-08-27T14:50:07.766Z,6.50
2017-08-27T14:52:34.387Z,6.03
2017-08-27T14:55:01.021Z,8.53
2017-08-27T14:57:27.667Z,5.07
2017-08-27T14:59:54.315Z,5.60
2017-08-27T15:02:20.956Z,6.40
2017-08-27T15:04:47.579Z,4.67
2017-08-27T15:07:14.184Z,4.43
2017-08-27T15:09:40.814Z,7.03
2017-08-27T15:12:07.476Z,4.63
2017-08-27T15:14:34.110Z,6.47
2017-08-27T15:17:00.718Z,4.17
2017-08-27T15:19:27.351Z,6.07
2017-08-27T15:21:53.979Z,6.67
2017-08-27T15:24:20.623Z,4.00
2017-08-27T15:26:47.273Z,7.93
2017-08-27T15:29:13.896Z,5.07
2017-08-27T15:31:40.535Z,6.97
2017-08-27T15:34:07.150Z,4.33
2017-08-27T15:36:33.800Z,3.10
2017-08-27T15:39:00.450Z,8.37
2017-08-27T15:41:27.086Z,5.47
2017-08-27T15:43:53.736Z,10.10
2017-08-27T15:46:20.520Z,6.53
2017-08-27T15:48:47.149Z,4.90
2017-08-27T15:51:13.770Z,7.60
2017-08-27T15:53:40.395Z,4.77
2017-08-27T15:56:07.023Z,5.37
2017-08-27T15:58:33.666Z,3.40
2017-08-27T16:01:00.326Z,3.63
2017-08-27T16:03:27.074Z,5.07
2017-08-27T16:05:53.692Z,3.83
2017-08-27T16:08:20.343Z,7.67
2017-08-27T16:10:46.956Z,3.30
2017-08-27T16:13:13.566Z,4.00
2017-08-27T16:15:40.195Z,8.60
2017-08-27T16:18:06.816Z,3.53
2017-08-27T16:20:33.452Z,8.10
2017-08-27T16:23:00.119Z,5.70
2017-08-27T16:25:26.764Z,3.50
2017-08-27T16:27:53.396Z,7.50
2017-08-27T16:30:20.025Z,3.83
2017-08-27T16:32:46.660Z,4.30
2017-08-27T16:35:13.294Z,3.73
2017-08-27T16:37:39.947Z,6.10
2017-08-27T16:40:06.578Z,6.33
2017-08-27T16:42:33.200Z,4.57
2017-08-27T16:44:59.856Z,5.50
2017-08-27T16:47:32.312Z,4.07
2017-08-27T16:49:58.970Z,5.63
2017-08-27T16:52:25.600Z,13.23
2017-08-27T16:54:52.240Z,6.80
2017-08-27T16:57:18.858Z,16.93
2017-08-27T16:59:45.478Z,19.67
2017-08-27T17:02:12.125Z,14.67
2017-08-27T17:04:38.755Z,4.00
2017-08-27T17:07:05.363Z,5.90
2017-08-27T17:09:32.007Z,7.53
2017-08-27T17:11:58.707Z,4.00
2017-08-27T17:14:25.348Z,4.50
2017-08-27T17:16:51.988Z,3.67
2017-08-27T17:19:18.634Z,3.77
2017-08-27T17:21:45.291Z,4.20
2017-08-27T17:24:11.976Z,5.47
2017-08-27T17:26:38.619Z,3.37
2017-08-27T17:29:05.236Z,3.20
2017-08-27T17:31:31.889Z,7.30
2017-08-27T17:33:58.522Z,4.07
2017-08-27T17:36:25.142Z,3.47
2017-08-27T17:38:51.784Z,4.83
2017-08-27T17:41:18.391Z,3.60
2017-08-27T17:43:45.030Z,6.47
2017-08-27T17:46:11.663Z,4.77
2017-08-27T17:48:38.320Z,3.20
2017-08-27T17:51:04.959Z,6.33
2017-08-27T17:53:31.594Z,3.50
2017-08-27T17:55:58.227Z,3.80
2017-08-27T17:58:24.878Z,3.77
2017-08-27T18:00:51.564Z,3.20
2017-08-27T18:03:18.195Z,4.83
2017-08-27T18:05:45.738Z,4.53
2017-08-27T18:08:12.400Z,3.33
2017-08-27T18:10:39.036Z,2.70
2017-08-27T18:13:05.703Z,6.80
2017-08-27T18:15:32.336Z,6.43
2017-08-27T18:17:58.988Z,4.40
2017-08-27T18:20:25.600Z,5.20
2017-08-27T18:22:52.233Z,3.97
2017-08-27T18:25:18.885Z,5.07
2017-08-27T18:27:45.497Z,2.90
2017-08-27T18:30:12.176Z,3.30
2017-08-27T18:32:38.802Z,4.27
2017-08-27T18:35:05.400Z,4.97
2017-08-27T18:37:32.056Z,3.33
2017-08-27T18:39:58.667Z,3.43
2017-08-27T18:42:25.299Z,4.50
2017-08-27T18:44:51.930Z,4.00
2017-08-27T18:47:18.564Z,6.53
2017-08-27T18:49:45.191Z,5.50
2017-08-27T18:52:11.835Z,7.80
2017-08-27T18:54:38.517Z,5.40
2017-08-27T18:57:05.159Z,4.53
2017-08-27T18:59:31.773Z,2.83
2017-08-27T19:01:58.434Z,3.77
2017-08-27T19:04:25.077Z,4.03
2017-08-27T19:06:51.723Z,5.30
2017-08-27T19:09:18.381Z,7.60
2017-08-27T19:11:44.988Z,4.70
2017-08-27T19:14:11.646Z,3.63
2017-08-27T19:16:38.271Z,6.23
2017-08-27T19:19:04.941Z,4.67
2017-08-27T19:21:31.550Z,4.70
2017-08-27T19:23:58.210Z,6.10
2017-08-27T19:26:24.809Z,4.90
2017-08-27T19:28:51.454Z,5.53
2017-08-27T19:31:18.074Z,6.03
2017-08-27T19:33:44.713Z,4.27
2017-08-27T19:36:11.350Z,6.80
2017-08-27T19:38:37.975Z,4.27
2017-08-27T19:41:04.616Z,6.37
2017-08-27T19:43:31.246Z,5.87
2017-08-27T19:45:57.870Z,4.20
2017-08-27T19:48:24.504Z,5.93
2017-08-27T19:50:51.139Z,4.40
2017-08-27T19:53:17.783Z,5.83
2017-08-27T19:55:44.462Z,4.40
2017-08-27T19:58:11.087Z,4.87
2017-08-27T20:00:37.691Z,9.17
2017-08-27T20:03:04.361Z,4.30
2017-08-27T20:05:31.011Z,5.20
2017-08-27T20:07:57.639Z,5.13
2017-08-27T20:10:24.272Z,5.07
2017-08-27T20:12:50.887Z,5.57
2017-08-27T20:15:17.531Z,4.67
2017-08-27T20:17:44.151Z,4.60
2017-08-27T20:20:10.759Z,4.73
2017-08-27T20:22:37.395Z,6.10
2017-08-27T20:25:03.996Z,6.10
2017-08-27T20:27:30.628Z,5.67
2017-08-27T20:29:57.256Z,5.80
2017-08-27T20:32:23.895Z,6.30
2017-08-27T20:34:50.575Z,7.47
2017-08-27T20:37:17.189Z,7.50
2017-08-27T20:39:43.822Z,5.73
2017-08-27T20:42:10.438Z,6.00
2017-08-27T20:44:37.096Z,6.87
2017-08-27T20:47:03.755Z,6.87
2017-08-27T20:49:30.384Z,6.00
2017-08-27T20:51:57.019Z,4.83
2017-08-27T20:54:23.678Z,6.13
2017-08-27T20:56:50.309Z,7.33
2017-08-27T20:59:16.935Z,5.10
2017-08-27T21:01:43.592Z,6.63
2017-08-27T21:04:10.234Z,6.10
2017-08-27T21:06:36.867Z,6.60
2017-08-27T21:09:03.526Z,6.13
2017-08-27T21:11:30.139Z,6.73
2017-08-27T21:13:56.776Z,6.07
2017-08-27T21:16:23.423Z,6.57
2017-08-27T21:18:50.046Z,6.90
2017-08-27T21:21:16.696Z,6.50
2017-08-27T21:23:43.363Z,6.70
2017-08-27T21:26:09.992Z,9.03
2017-08-27T21:28:36.606Z,7.07
2017-08-27T21:31:03.231Z,5.87
2017-08-27T21:33:29.844Z,8.00
2017-08-27T21:35:56.482Z,8.60
2017-08-27T21:38:23.087Z,9.00
2017-08-27T21:40:49.727Z,6.27
2017-08-27T21:43:16.358Z,10.80
2017-08-27T21:45:43.016Z,6.53
2017-08-27T21:48:09.655Z,6.60
2017-08-27T21:50:36.259Z,8.33
2017-08-27T21:53:02.931Z,6.47
2017-08-27T21:55:29.567Z,6.43
2017-08-27T21:57:56.230Z,9.50
2017-08-27T22:00:28.683Z,6.90
2017-08-27T22:02:55.563Z,11.70
2017-08-27T22:05:22.185Z,6.93
2017-08-27T22:07:48.815Z,6.03
2017-08-27T22:10:15.445Z,6.77
2017-08-27T22:12:42.059Z,8.47
2017-08-27T22:15:08.730Z,6.53
2017-08-27T22:17:35.335Z,5.93
2017-08-27T22:20:01.968Z,6.07
2017-08-27T22:22:28.578Z,6.20
2017-08-27T22:24:55.202Z,8.00
2017-08-27T22:27:21.979Z,7.93
2017-08-27T22:29:48.600Z,6.87
2017-08-27T22:32:15.231Z,5.90
2017-08-27T22:34:41.843Z,8.47
2017-08-27T22:37:08.485Z,7.07
2017-08-27T22:39:35.115Z,5.93
2017-08-27T22:42:01.760Z,7.30
2017-08-27T22:44:28.386Z,5.60
2017-08-27T22:46:55.008Z,6.33
2017-08-27T22:49:21.625Z,7.20
2017-08-27T22:51:48.230Z,8.77
2017-08-27T22:54:14.861Z,6.33
2017-08-27T22:56:41.491Z,7.57
2017-08-27T22:59:08.159Z,8.10
2017-08-27T23:01:34.757Z,5.53
2017-08-27T23:04:01.387Z,8.53
2017-08-27T23:06:27.993Z,6.37
2017-08-27T23:08:54.624Z,7.27
2017-08-27T23:11:21.271Z,6.10
2017-08-27T23:13:47.883Z,8.60
2017-08-27T23:16:14.540Z,6.67
2017-08-27T23:18:41.168Z,7.27
2017-08-27T23:21:07.763Z,7.40
2017-08-27T23:23:34.433Z,7.13
2017-08-27T23:26:01.034Z,7.43
2017-08-27T23:28:27.663Z,6.80
2017-08-27T23:30:54.296Z,5.93
2017-08-27T23:33:20.947Z,6.97
2017-08-27T23:35:47.584Z,7.97
2017-08-27T23:38:14.216Z,15.50
2017-08-27T23:40:40.855Z,6.80
2017-08-27T23:43:07.454Z,6.17
2017-08-27T23:45:34.150Z,6.63
2017-08-27T23:48:00.759Z,5.90
2017-08-27T23:50:27.382Z,7.43
2017-08-27T23:52:54.020Z,8.20
2017-08-27T23:55:20.645Z,7.90
2017-08-27T23:57:47.352Z,6.67
